KHHW

Stan Stamper Municipal Airport

Hugo, Oklahoma, USA
METAR KHHW 221735Z AUTO 20008KT 10SM SCT033 30/20 A3003 RMK AO2 LTG DSNT NE T03010196
Observed Flight Rules
May-22 @ 17:35 UTC (9 minutes ago) Visual Flight Rules
Wind Visibility Clouds
200° at 8 knots 10 miles
  • Scattered at 3,300' AGL
Temperatures Readings
Current 30°C / 86°F
Dewpoint 20°C / 68°F
Humidity 55%
Altimeter 30.03" Hg
Pressure 1017 hPa
Elevation 144
METAR KHHW 221735Z AUTO 20008KT 10SM SCT033 30/20 A3003 RMK AO2 LTG DSNT NE T03010196
Observed Flight Rules
May-22 @ 17:35 UTC
(9 minutes ago)
VFR
Wind Visibility
200° at 8 knots 10 miles
Clouds
  • Scattered at 3,300' AGL
Temperature Dewpoint
30°C / 86°F 20°C / 68°F
Humidity Altimeter Pressure
55% 30.03" Hg 1017 hPa